Time;durP1;ratioP1;P1;durP2;ratioP2;P2;SDS_P1;SDS_P2;PMS_P1;PMS_P2;Temp;Humidity;BMP_temperature;BMP_pressure;BME280_temperature;BME280_humidity;BME280_pressure;Samples;Min_cycle;Max_cycle;Signal;HPM_P1;HPM_P2
2024/01/22 00:01:23;;;;;;;8.43;4.65;;;7.10;99.90;;;;;;4872369;29;20049;-44
2024/01/22 00:03:49;;;;;;;6.95;4.40;;;7.10;99.90;;;;;;4874326;29;20064;-46
2024/01/22 00:06:14;;;;;;;7.18;4.15;;;7.10;99.90;;;;;;4870270;29;20100;-46
2024/01/22 00:08:40;;;;;;;7.20;4.60;;;7.10;99.90;;;;;;4872700;29;20037;-45
2024/01/22 00:11:06;;;;;;;7.75;4.03;;;7.10;99.90;;;;;;4873707;29;20049;-44
2024/01/22 00:13:31;;;;;;;10.48;4.18;;;7.10;99.90;;;;;;4874085;29;20496;-45
2024/01/22 00:15:57;;;;;;;8.25;4.20;;;7.30;99.90;;;;;;4881200;29;20996;-46
2024/01/22 00:18:23;;;;;;;6.07;3.80;;;7.30;99.90;;;;;;4875732;29;20393;-45
2024/01/22 00:20:48;;;;;;;7.25;3.58;;;7.30;99.90;;;;;;4874062;29;20057;-46
2024/01/22 00:23:14;;;;;;;11.18;4.00;;;7.30;99.90;;;;;;4878028;29;20428;-45
2024/01/22 00:25:40;;;;;;;5.45;3.50;;;7.30;99.90;;;;;;4876319;29;20033;-45
2024/01/22 00:28:06;;;;;;;5.72;3.63;;;7.40;99.90;;;;;;4878408;29;20053;-46
2024/01/22 00:30:31;;;;;;;8.48;4.18;;;7.40;99.90;;;;;;4873122;29;20060;-46
2024/01/22 00:32:57;;;;;;;4.22;3.60;;;7.40;99.90;;;;;;4856984;29;20040;-45
2024/01/22 00:35:23;;;;;;;7.97;4.32;;;7.50;99.90;;;;;;4858150;29;20049;-45
2024/01/22 00:37:48;;;;;;;7.30;4.15;;;7.50;99.90;;;;;;4873710;29;20404;-47
2024/01/22 00:40:14;;;;;;;6.65;3.78;;;7.50;99.90;;;;;;4873181;29;20052;-46
2024/01/22 00:42:42;;;;;;;7.60;3.70;;;7.50;99.90;;;;;;4873531;29;20045;-45
2024/01/22 00:45:08;;;;;;;5.10;3.10;;;7.50;99.90;;;;;;4875976;29;20416;-45
2024/01/22 00:47:34;;;;;;;8.98;4.03;;;7.50;99.90;;;;;;4878098;29;20048;-46
2024/01/22 00:49:59;;;;;;;6.97;3.40;;;7.60;99.90;;;;;;4868115;29;20048;-46
2024/01/22 00:52:25;;;;;;;8.57;4.13;;;7.60;99.90;;;;;;4863530;29;20135;-45
2024/01/22 00:54:51;;;;;;;6.32;3.63;;;7.60;99.90;;;;;;4875989;29;20067;-45
2024/01/22 00:57:16;;;;;;;8.10;3.72;;;7.60;99.90;;;;;;4878295;29;20112;-47
2024/01/22 00:59:42;;;;;;;5.43;3.60;;;7.60;99.90;;;;;;4875243;29;20734;-45
2024/01/22 01:02:07;;;;;;;5.55;3.70;;;7.70;99.90;;;;;;4878224;29;20052;-45
2024/01/22 01:04:33;;;;;;;5.05;3.28;;;7.70;99.90;;;;;;4873789;29;20049;-46
2024/01/22 01:06:58;;;;;;;4.55;3.30;;;7.60;99.90;;;;;;4875877;29;20045;-46
2024/01/22 01:09:24;;;;;;;9.50;3.67;;;7.70;99.90;;;;;;4877186;29;20088;-46
2024/01/22 01:11:50;;;;;;;5.68;3.40;;;7.70;99.90;;;;;;4871918;29;20484;-46
2024/01/22 01:14:15;;;;;;;7.60;3.55;;;7.70;99.90;;;;;;4873323;29;20185;-45
2024/01/22 01:16:41;;;;;;;5.18;3.60;;;7.80;99.90;;;;;;4870593;29;20052;-45
2024/01/22 01:19:06;;;;;;;6.15;3.75;;;7.80;99.90;;;;;;4873289;29;20080;-45
2024/01/22 01:21:32;;;;;;;6.55;3.35;;;7.80;99.90;;;;;;4877983;29;20041;-44
2024/01/22 01:23:58;;;;;;;4.32;3.50;;;7.90;99.90;;;;;;4872659;29;20096;-44
2024/01/22 01:26:23;;;;;;;4.95;3.50;;;7.90;99.90;;;;;;4871131;29;20107;-46
2024/01/22 01:28:49;;;;;;;5.82;3.42;;;7.90;99.90;;;;;;4874499;29;20069;-46
2024/01/22 01:31:14;;;;;;;4.90;3.28;;;8.00;99.90;;;;;;4862792;29;20495;-46
2024/01/22 01:33:40;;;;;;;6.15;3.67;;;;;;;;;;4873488;29;20033;-47
2024/01/22 01:36:06;;;;;;;4.55;3.33;;;8.10;99.90;;;;;;4876702;29;20037;-47
2024/01/22 01:38:31;;;;;;;6.15;3.30;;;8.10;99.90;;;;;;4879332;29;20072;-46
2024/01/22 01:40:57;;;;;;;4.82;3.33;;;8.10;99.90;;;;;;4873520;29;20481;-48
2024/01/22 01:43:23;;;;;;;5.80;3.35;;;8.10;99.90;;;;;;4873386;29;20529;-45
2024/01/22 01:45:48;;;;;;;5.40;3.13;;;8.10;99.90;;;;;;4872583;29;20142;-45
2024/01/22 01:48:14;;;;;;;3.35;2.67;;;8.20;99.90;;;;;;4872460;29;20057;-43
2024/01/22 01:50:40;;;;;;;4.53;3.00;;;;;;;;;;4872688;29;20334;-44
2024/01/22 01:53:07;;;;;;;5.38;3.15;;;8.30;99.90;;;;;;4874697;29;20415;-45
2024/01/22 01:55:35;;;;;;;5.20;3.40;;;8.30;99.90;;;;;;4872921;29;20049;-44
2024/01/22 01:58:01;;;;;;;4.50;3.30;;;8.30;99.90;;;;;;4872503;29;20404;-45
2024/01/22 02:00:28;;;;;;;6.28;3.33;;;8.30;99.90;;;;;;4874515;29;20052;-44
2024/01/22 02:02:54;;;;;;;5.50;3.30;;;8.30;99.90;;;;;;4872979;29;20041;-44
2024/01/22 02:05:20;;;;;;;4.68;2.90;;;8.30;99.90;;;;;;4876007;29;20044;-44
2024/01/22 02:07:46;;;;;;;6.75;3.45;;;8.30;99.90;;;;;;4840237;29;20049;-44
2024/01/22 02:10:13;;;;;;;5.72;3.55;;;8.30;99.90;;;;;;4860759;29;20390;-44
2024/01/22 02:12:38;;;;;;;6.65;3.30;;;8.30;99.90;;;;;;4871629;29;20124;-45
2024/01/22 02:15:05;;;;;;;5.75;3.60;;;8.30;99.90;;;;;;4874948;29;20171;-46
2024/01/22 02:17:31;;;;;;;4.57;3.42;;;8.30;99.90;;;;;;4875266;29;20045;-44
2024/01/22 02:19:56;;;;;;;6.80;3.80;;;8.20;99.90;;;;;;4878041;29;20049;-45
2024/01/22 02:22:22;;;;;;;5.95;3.47;;;8.20;99.90;;;;;;4856293;29;20073;-46
2024/01/22 02:24:48;;;;;;;6.53;3.30;;;8.20;99.90;;;;;;4878850;29;20397;-45
2024/01/22 02:27:14;;;;;;;5.47;3.58;;;8.20;99.90;;;;;;4875425;29;20459;-44
2024/01/22 02:29:39;;;;;;;6.22;3.60;;;8.20;99.90;;;;;;4876541;29;20059;-45
2024/01/22 02:32:05;;;;;;;5.47;3.67;;;8.20;99.90;;;;;;4869596;29;20053;-44
2024/01/22 02:34:31;;;;;;;6.78;3.58;;;8.10;99.90;;;;;;4872975;29;20069;-46
2024/01/22 02:36:56;;;;;;;7.47;3.35;;;8.20;99.90;;;;;;4877050;29;20041;-44
2024/01/22 02:39:22;;;;;;;4.65;3.03;;;8.30;99.90;;;;;;4859242;29;20105;-45
2024/01/22 02:41:48;;;;;;;4.22;3.22;;;8.20;99.90;;;;;;4857652;29;20099;-45
2024/01/22 02:44:13;;;;;;;4.28;2.53;;;8.20;99.90;;;;;;4872744;29;20055;-45
2024/01/22 02:46:39;;;;;;;6.05;2.88;;;8.30;99.90;;;;;;4871202;29;20128;-46
2024/01/22 02:49:07;;;;;;;5.75;3.22;;;8.30;99.90;;;;;;4875432;29;20120;-46
2024/01/22 02:51:33;;;;;;;5.28;3.28;;;8.30;99.90;;;;;;4871491;29;20041;-45
2024/01/22 02:53:59;;;;;;;3.65;3.00;;;8.30;99.90;;;;;;4872688;29;20051;-46
2024/01/22 02:56:24;;;;;;;4.97;3.40;;;8.30;99.90;;;;;;4872836;29;20129;-46
2024/01/22 02:58:50;;;;;;;5.13;3.60;;;8.30;99.90;;;;;;4871259;29;20081;-44
2024/01/22 03:01:16;;;;;;;5.43;3.20;;;8.40;99.90;;;;;;4877313;29;20049;-45
2024/01/22 03:03:42;;;;;;;4.53;3.20;;;8.40;99.90;;;;;;4871020;29;20045;-46
2024/01/22 03:06:08;;;;;;;7.65;3.40;;;8.40;99.90;;;;;;4874955;29;20489;-45
2024/01/22 03:08:34;;;;;;;5.20;3.00;;;8.40;99.90;;;;;;4874523;29;20051;-45
2024/01/22 03:11:00;;;;;;;3.95;3.10;;;8.40;99.90;;;;;;4879019;29;20088;-44
2024/01/22 03:13:25;;;;;;;5.15;3.08;;;8.40;99.90;;;;;;4873833;29;20045;-46
2024/01/22 03:15:51;;;;;;;5.65;3.10;;;8.40;99.90;;;;;;4864141;29;20045;-45
2024/01/22 03:18:16;;;;;;;6.05;3.15;;;8.50;99.90;;;;;;4867331;29;20044;-44
2024/01/22 03:20:42;;;;;;;6.65;3.50;;;8.50;99.90;;;;;;4873670;29;20053;-45
2024/01/22 03:23:07;;;;;;;5.80;3.10;;;8.40;99.90;;;;;;4874397;29;20119;-45
2024/01/22 03:25:33;;;;;;;5.57;3.10;;;8.40;99.90;;;;;;4878878;29;20040;-44
2024/01/22 03:27:59;;;;;;;4.25;3.42;;;8.40;99.90;;;;;;4870136;29;20059;-44
2024/01/22 03:30:24;;;;;;;4.95;3.08;;;8.40;99.90;;;;;;4870661;29;20048;-45
2024/01/22 03:32:50;;;;;;;4.50;3.05;;;8.40;99.90;;;;;;4878757;29;20493;-46
2024/01/22 03:35:15;;;;;;;6.40;3.20;;;8.40;99.90;;;;;;4885094;29;20143;-46
2024/01/22 03:37:41;;;;;;;5.80;3.20;;;8.40;99.90;;;;;;4884945;29;20082;-44
2024/01/22 03:40:08;;;;;;;4.45;2.78;;;8.30;99.90;;;;;;4880796;29;20477;-44
2024/01/22 03:42:33;;;;;;;4.10;2.78;;;8.40;99.90;;;;;;4884517;29;20037;-45
2024/01/22 03:44:59;;;;;;;4.43;3.03;;;8.30;99.90;;;;;;4878229;29;20113;-48
2024/01/22 03:47:25;;;;;;;3.33;2.80;;;8.40;99.90;;;;;;4890153;29;20096;-45
2024/01/22 03:49:50;;;;;;;3.88;2.80;;;8.40;99.90;;;;;;4864045;29;20047;-46
2024/01/22 03:52:16;;;;;;;4.22;3.08;;;8.40;99.90;;;;;;4880636;29;20092;-45
2024/01/22 03:54:41;;;;;;;3.67;3.00;;;8.40;99.90;;;;;;4876147;29;20068;-45
2024/01/22 03:57:07;;;;;;;4.95;2.83;;;8.40;99.90;;;;;;4877311;29;20120;-46
2024/01/22 03:59:37;;;;;;;5.68;3.03;;;8.40;99.90;;;;;;4880525;29;20485;-45
2024/01/22 04:02:03;;;;;;;4.88;3.13;;;8.40;99.90;;;;;;4862928;29;20056;-44
2024/01/22 04:04:29;;;;;;;4.85;3.00;;;8.40;99.90;;;;;;4883110;29;20072;-44
2024/01/22 04:06:55;;;;;;;5.95;3.00;;;8.50;99.90;;;;;;4876426;29;20477;-44
2024/01/22 04:09:21;;;;;;;4.25;3.13;;;8.50;99.90;;;;;;4860421;29;20051;-44
2024/01/22 04:11:46;;;;;;;5.38;3.40;;;8.50;99.90;;;;;;4882216;29;20041;-43
2024/01/22 04:14:12;;;;;;;4.20;3.05;;;8.50;99.90;;;;;;4882945;29;20049;-46
2024/01/22 04:16:37;;;;;;;4.28;2.55;;;8.50;99.90;;;;;;4886721;29;20053;-45
2024/01/22 04:19:03;;;;;;;5.78;3.47;;;8.50;99.90;;;;;;4882161;29;20130;-45
2024/01/22 04:21:30;;;;;;;3.28;2.97;;;8.50;99.90;;;;;;4880144;29;20041;-44
2024/01/22 04:23:56;;;;;;;4.75;3.13;;;8.50;99.90;;;;;;4869417;29;20061;-45
2024/01/22 04:26:22;;;;;;;4.70;2.83;;;8.50;99.90;;;;;;4856608;29;20037;-44
2024/01/22 04:28:47;;;;;;;3.95;3.10;;;8.50;99.90;;;;;;4871128;29;20121;-44
2024/01/22 04:31:13;;;;;;;6.53;3.10;;;8.50;99.90;;;;;;4870653;29;20173;-44
2024/01/22 04:33:41;;;;;;;6.88;3.50;;;8.60;99.90;;;;;;4868910;29;20040;-44
2024/01/22 04:36:08;;;;;;;4.60;3.03;;;8.60;99.90;;;;;;4872234;29;20037;-45
2024/01/22 04:38:34;;;;;;;3.40;2.92;;;8.60;99.90;;;;;;4876395;29;20057;-47
2024/01/22 04:40:59;;;;;;;4.80;3.10;;;8.60;99.90;;;;;;4868892;29;20053;-48
2024/01/22 04:43:25;;;;;;;3.60;2.78;;;8.60;99.90;;;;;;4871512;29;20060;-47
2024/01/22 04:45:50;;;;;;;3.67;2.55;;;8.60;99.90;;;;;;4871006;29;20078;-45
2024/01/22 04:48:16;;;;;;;2.63;2.40;;;8.60;99.90;;;;;;4873288;29;20087;-44
2024/01/22 04:50:42;;;;;;;5.03;2.75;;;8.70;99.90;;;;;;4873377;29;20048;-45
2024/01/22 04:53:07;;;;;;;5.55;2.70;;;8.70;99.90;;;;;;4870672;29;20115;-46
2024/01/22 04:55:33;;;;;;;3.05;2.65;;;8.80;99.90;;;;;;4873248;29;20041;-46
2024/01/22 04:57:58;;;;;;;3.28;2.70;;;8.80;99.90;;;;;;4873451;29;20041;-47
2024/01/22 05:00:24;;;;;;;3.58;2.65;;;8.80;99.90;;;;;;4877857;29;20056;-44
2024/01/22 05:02:49;;;;;;;3.17;2.65;;;8.80;99.90;;;;;;4874734;29;20053;-45
2024/01/22 05:05:15;;;;;;;3.20;2.60;;;8.90;99.90;;;;;;4872040;29;20044;-45
2024/01/22 05:07:41;;;;;;;2.70;2.30;;;8.90;99.90;;;;;;4874694;29;20041;-47
2024/01/22 05:10:13;;;;;;;5.30;2.28;;;8.90;99.90;;;;;;4879205;29;20041;-44
2024/01/22 05:12:39;;;;;;;3.15;2.35;;;9.00;99.90;;;;;;4876515;29;20501;-45
2024/01/22 05:15:05;;;;;;;3.17;2.47;;;9.00;99.90;;;;;;4874919;29;20048;-46
2024/01/22 05:17:32;;;;;;;4.50;2.78;;;9.10;99.90;;;;;;4875943;29;20154;-45
2024/01/22 05:19:58;;;;;;;2.50;2.30;;;9.00;99.90;;;;;;4870622;29;20096;-45
2024/01/22 05:22:24;;;;;;;2.47;2.28;;;9.10;99.90;;;;;;4876898;29;20064;-45
2024/01/22 05:24:50;;;;;;;2.70;2.33;;;9.10;99.90;;;;;;4877286;29;20041;-46
2024/01/22 05:27:16;;;;;;;2.50;2.30;;;9.10;99.90;;;;;;4879879;29;20041;-46
2024/01/22 05:29:42;;;;;;;2.55;2.13;;;9.20;99.90;;;;;;4875429;29;20464;-46
2024/01/22 05:32:08;;;;;;;3.22;2.28;;;9.20;99.90;;;;;;4875527;29;20053;-45
2024/01/22 05:34:33;;;;;;;4.35;2.30;;;9.20;99.90;;;;;;4871434;29;20132;-45
2024/01/22 05:36:59;;;;;;;2.30;2.10;;;9.40;99.90;;;;;;4875495;29;20076;-44
2024/01/22 05:39:26;;;;;;;2.40;2.17;;;9.30;99.90;;;;;;4874791;29;20056;-46
2024/01/22 05:41:52;;;;;;;2.40;2.20;;;9.40;99.90;;;;;;4875984;29;20441;-45
2024/01/22 05:44:17;;;;;;;2.50;2.30;;;9.40;99.90;;;;;;4874567;29;20079;-44
2024/01/22 05:46:43;;;;;;;2.92;2.25;;;9.40;99.90;;;;;;4876472;29;20052;-44
2024/01/22 05:49:10;;;;;;;2.50;2.13;;;9.50;99.90;;;;;;4861103;29;20398;-44
2024/01/22 05:51:36;;;;;;;4.15;2.25;;;9.50;99.90;;;;;;4867264;29;20060;-45
2024/01/22 05:54:02;;;;;;;3.80;2.33;;;9.50;99.90;;;;;;4872896;29;20057;-47
2024/01/22 05:56:28;;;;;;;2.63;2.38;;;9.50;99.90;;;;;;4869786;29;20051;-45
2024/01/22 05:58:56;;;;;;;4.45;2.20;;;9.50;99.90;;;;;;4872670;29;20132;-44
2024/01/22 06:01:26;;;;;;;3.70;2.08;;;9.50;99.90;;;;;;4874450;29;20088;-44
2024/01/22 06:03:53;;;;;;;3.35;2.35;;;9.50;99.90;;;;;;4875136;29;20407;-45
2024/01/22 06:06:19;;;;;;;2.85;2.22;;;9.60;99.90;;;;;;4872884;29;20128;-49
2024/01/22 06:08:46;;;;;;;4.38;2.10;;;9.60;99.90;;;;;;4871635;29;20053;-45
2024/01/22 06:11:13;;;;;;;2.53;2.10;;;9.50;99.90;;;;;;4874442;29;20037;-47
2024/01/22 06:13:39;;;;;;;2.92;2.10;;;9.50;99.90;;;;;;4872787;29;20301;-48
2024/01/22 06:16:14;;;;;;;2.88;2.20;;;9.60;99.90;;;;;;4875235;29;20073;-46
2024/01/22 06:18:41;;;;;;;2.97;2.00;;;9.60;99.90;;;;;;4882950;29;20507;-46
2024/01/22 06:21:11;;;;;;;2.92;2.20;;;9.60;99.90;;;;;;4883255;29;20052;-46
2024/01/22 06:23:37;;;;;;;2.15;1.92;;;9.50;99.90;;;;;;4885141;29;20037;-46
2024/01/22 06:26:03;;;;;;;2.38;2.17;;;9.60;99.90;;;;;;4879716;29;20044;-46
2024/01/22 06:28:31;;;;;;;3.95;2.10;;;9.70;99.90;;;;;;4868024;29;20056;-47
2024/01/22 06:30:57;;;;;;;4.32;2.47;;;9.60;99.90;;;;;;4886692;29;20040;-45
2024/01/22 06:33:23;;;;;;;3.90;2.63;;;9.60;99.90;;;;;;4890776;29;20045;-45
2024/01/22 06:35:49;;;;;;;4.57;2.40;;;9.60;99.90;;;;;;4884045;29;20044;-45
2024/01/22 06:38:19;;;;;;;4.30;2.50;;;9.60;99.90;;;;;;4889303;29;20365;-45
2024/01/22 06:40:45;;;;;;;4.90;2.33;;;9.60;99.90;;;;;;4882726;29;20045;-46
2024/01/22 06:43:11;;;;;;;3.47;2.42;;;9.60;99.90;;;;;;4891656;29;20479;-48
2024/01/22 06:45:36;;;;;;;3.88;2.30;;;9.60;99.90;;;;;;4884234;29;20124;-48
2024/01/22 06:48:02;;;;;;;5.00;2.55;;;9.60;99.90;;;;;;4890392;29;20045;-46
2024/01/22 06:50:28;;;;;;;3.40;2.10;;;9.50;99.90;;;;;;4892925;29;20435;-46
2024/01/22 06:52:54;;;;;;;3.88;2.20;;;9.60;99.90;;;;;;4890165;29;20128;-48
2024/01/22 06:55:20;;;;;;;4.57;2.30;;;9.70;99.90;;;;;;4877999;29;20553;-47
2024/01/22 06:57:45;;;;;;;4.32;2.10;;;9.60;99.90;;;;;;4886968;29;20511;-45
2024/01/22 07:00:11;;;;;;;4.18;2.08;;;9.70;99.90;;;;;;4885907;29;20092;-45
2024/01/22 07:02:38;;;;;;;6.45;2.17;;;9.60;99.90;;;;;;4886073;29;20098;-45
2024/01/22 07:05:05;;;;;;;5.63;1.90;;;9.60;99.90;;;;;;4880380;29;20041;-45
2024/01/22 07:07:32;;;;;;;5.47;2.00;;;9.70;99.90;;;;;;4876262;29;20057;-48
2024/01/22 07:09:58;;;;;;;4.68;1.92;;;9.60;99.90;;;;;;4887952;29;20453;-46
2024/01/22 07:12:24;;;;;;;9.50;2.22;;;9.70;99.90;;;;;;4878345;29;20059;-46
2024/01/22 07:14:49;;;;;;;7.93;1.80;;;9.80;99.90;;;;;;4877934;29;20404;-46
2024/01/22 07:17:16;;;;;;;5.22;1.90;;;9.90;99.90;;;;;;4886072;29;20512;-47
2024/01/22 07:19:42;;;;;;;7.22;2.10;;;9.80;99.90;;;;;;4872320;29;20480;-44
2024/01/22 07:22:08;;;;;;;9.77;2.33;;;9.90;99.90;;;;;;4891900;29;20048;-47
2024/01/22 07:24:33;;;;;;;10.70;2.60;;;9.90;99.90;;;;;;4891629;29;20042;-46
2024/01/22 07:26:59;;;;;;;15.93;2.20;;;10.10;99.90;;;;;;4878562;29;20079;-45
2024/01/22 07:29:24;;;;;;;9.60;2.15;;;10.10;99.90;;;;;;4876249;29;20045;-45
2024/01/22 07:31:50;;;;;;;15.30;3.10;;;10.10;99.90;;;;;;4872589;29;20083;-45
2024/01/22 07:34:16;;;;;;;10.55;2.40;;;10.20;99.90;;;;;;4876136;29;20057;-45
2024/01/22 07:36:41;;;;;;;14.85;3.00;;;10.20;99.90;;;;;;4871032;29;20045;-45
2024/01/22 07:39:07;;;;;;;13.60;3.17;;;10.20;99.90;;;;;;4875293;29;20044;-46
2024/01/22 07:41:38;;;;;;;16.23;3.30;;;10.20;99.90;;;;;;4868880;29;20116;-47
2024/01/22 07:44:04;;;;;;;12.90;2.58;;;10.20;99.90;;;;;;4863902;29;20067;-49
2024/01/22 07:46:30;;;;;;;12.13;2.55;;;10.20;99.90;;;;;;4875167;29;20089;-46
2024/01/22 07:48:56;;;;;;;12.90;3.00;;;10.20;99.90;;;;;;4878241;29;20105;-46
2024/01/22 07:51:22;;;;;;;17.70;3.53;;;10.20;99.90;;;;;;4871573;29;20090;-47
2024/01/22 07:53:48;;;;;;;13.25;2.92;;;10.20;99.90;;;;;;4855160;29;20081;-44
2024/01/22 07:56:14;;;;;;;11.68;2.60;;;10.20;99.90;;;;;;4870020;29;20469;-46
2024/01/22 07:58:40;;;;;;;14.02;3.45;;;10.20;99.90;;;;;;4872191;29;20099;-46
2024/01/22 08:01:06;;;;;;;13.48;3.28;;;10.20;99.90;;;;;;4874012;29;20053;-45
2024/01/22 08:03:34;;;;;;;13.50;3.60;;;10.10;99.90;;;;;;4853340;29;20053;-46
2024/01/22 08:06:00;;;;;;;10.82;2.92;;;10.20;99.90;;;;;;4868255;29;20037;-45
2024/01/22 08:08:27;;;;;;;10.45;3.00;;;10.10;99.90;;;;;;4869388;29;20476;-46
2024/01/22 08:10:53;;;;;;;11.97;2.77;;;10.10;99.90;;;;;;4866437;29;20427;-48
2024/01/22 08:13:20;;;;;;;13.75;3.20;;;10.20;99.90;;;;;;4866724;29;20061;-46
2024/01/22 08:15:46;;;;;;;9.10;3.25;;;10.10;99.90;;;;;;4874149;29;20124;-49
2024/01/22 08:18:13;;;;;;;15.68;3.28;;;10.20;99.90;;;;;;4869706;29;20136;-45
2024/01/22 08:20:39;;;;;;;11.38;3.03;;;10.10;99.90;;;;;;4872256;29;20045;-44
2024/01/22 08:23:05;;;;;;;13.80;3.03;;;10.10;99.90;;;;;;4868363;29;20061;-44
2024/01/22 08:25:31;;;;;;;11.55;2.80;;;10.10;99.90;;;;;;4857137;29;20568;-46
2024/01/22 08:27:58;;;;;;;12.32;2.70;;;10.10;99.90;;;;;;4868635;29;20041;-46
2024/01/22 08:30:24;;;;;;;7.03;2.43;;;10.20;99.90;;;;;;4853943;29;20569;-45
2024/01/22 08:32:51;;;;;;;7.55;2.70;;;10.20;99.90;;;;;;4869937;29;20131;-45
2024/01/22 08:35:18;;;;;;;9.52;2.63;;;10.30;99.90;;;;;;4854330;29;20668;-47
2024/01/22 08:37:52;;;;;;;8.40;2.60;;;10.20;99.90;;;;;;4872227;29;20180;-46
2024/01/22 08:40:21;;;;;;;11.45;2.97;;;10.20;99.90;;;;;;4870812;29;20110;-45
2024/01/22 08:42:52;;;;;;;11.52;2.95;;;10.20;99.90;;;;;;4875484;29;20418;-44
2024/01/22 08:45:18;;;;;;;10.90;2.80;;;10.30;99.90;;;;;;4873324;29;20125;-47
2024/01/22 08:47:45;;;;;;;13.43;3.25;;;10.20;99.90;;;;;;4872851;29;20041;-44
2024/01/22 08:50:23;;;;;;;9.07;3.40;;;10.30;99.90;;;;;;4877029;29;20437;-45
2024/01/22 08:52:52;;;;;;;14.43;3.45;;;10.20;99.90;;;;;;4873527;29;20360;-44
2024/01/22 08:55:20;;;;;;;13.32;3.47;;;10.20;99.90;;;;;;4872163;29;20088;-44
2024/01/22 08:57:46;;;;;;;14.88;3.80;;;10.20;99.90;;;;;;4872758;29;20045;-49
2024/01/22 09:00:13;;;;;;;14.77;3.60;;;10.20;99.90;;;;;;4872638;29;20579;-44
2024/01/22 09:02:39;;;;;;;14.35;3.30;;;10.20;99.90;;;;;;4872924;29;20045;-45
2024/01/22 09:05:14;;;;;;;14.27;3.22;;;10.20;99.90;;;;;;4873848;29;20101;-45
2024/01/22 09:07:41;;;;;;;10.93;3.78;;;10.10;99.90;;;;;;4872329;29;20045;-46
2024/01/22 09:10:07;;;;;;;15.80;3.47;;;10.20;99.90;;;;;;4870838;29;20053;-47
2024/01/22 09:12:34;;;;;;;19.67;3.60;;;10.10;99.90;;;;;;4854581;29;20637;-45
2024/01/22 09:15:01;;;;;;;18.63;4.05;;;10.10;99.90;;;;;;4872537;29;20499;-44
2024/01/22 09:17:27;;;;;;;14.10;3.42;;;10.10;99.90;;;;;;4873023;29;20244;-44
2024/01/22 09:19:53;;;;;;;12.50;3.25;;;10.20;99.90;;;;;;4875391;29;20167;-45
2024/01/22 09:22:21;;;;;;;9.23;2.15;;;10.20;99.90;;;;;;4873999;29;20041;-43
2024/01/22 09:24:47;;;;;;;10.25;2.33;;;10.20;99.90;;;;;;4872201;29;20044;-45
2024/01/22 09:27:13;;;;;;;12.15;2.33;;;10.20;99.90;;;;;;4877582;29;20057;-47
2024/01/22 09:29:41;;;;;;;12.07;2.50;;;10.10;99.90;;;;;;4872726;29;20041;-44
2024/01/22 09:32:08;;;;;;;11.68;2.70;;;10.20;99.90;;;;;;4869843;29;20183;-45
2024/01/22 09:34:34;;;;;;;17.17;3.13;;;10.10;99.90;;;;;;4871621;29;20503;-46
2024/01/22 09:36:59;;;;;;;14.50;3.00;;;10.00;99.90;;;;;;4872783;29;20048;-44
2024/01/22 09:39:25;;;;;;;13.85;3.03;;;10.00;99.90;;;;;;4870624;29;20068;-45
2024/01/22 09:41:51;;;;;;;22.85;3.55;;;10.10;99.90;;;;;;4871879;29;20412;-45
2024/01/22 09:44:17;;;;;;;19.35;3.60;;;10.10;99.90;;;;;;4876818;29;20044;-46
2024/01/22 09:46:43;;;;;;;17.77;3.33;;;10.00;99.90;;;;;;4872974;29;20048;-46
2024/01/22 09:49:09;;;;;;;21.42;4.32;;;10.00;99.90;;;;;;4871492;29;20744;-46
2024/01/22 09:51:35;;;;;;;29.60;4.72;;;10.00;99.90;;;;;;4872703;29;20041;-45
2024/01/22 09:54:08;;;;;;;32.05;5.63;;;10.00;99.90;;;;;;4869982;29;20132;-45
2024/01/22 09:56:36;;;;;;;31.15;5.80;;;10.10;99.90;;;;;;4871233;29;20045;-45
2024/01/22 09:59:12;;;;;;;34.53;6.07;;;10.10;99.90;;;;;;4869941;29;20074;-45
2024/01/22 10:01:38;;;;;;;36.60;6.45;;;10.10;99.90;;;;;;4874706;29;20618;-46
2024/01/22 10:04:05;;;;;;;35.05;6.90;;;10.10;99.90;;;;;;4871041;29;20322;-47
2024/01/22 10:06:33;;;;;;;36.93;5.87;;;10.20;99.90;;;;;;4870333;29;20060;-47
2024/01/22 10:08:59;;;;;;;37.72;6.18;;;10.20;99.90;;;;;;4873459;29;20347;-47
2024/01/22 10:11:25;;;;;;;41.53;6.78;;;10.30;99.90;;;;;;4871010;29;20179;-46
2024/01/22 10:13:51;;;;;;;37.70;7.25;;;10.30;99.90;;;;;;4872185;29;20041;-48
2024/01/22 10:16:17;;;;;;;43.03;6.90;;;10.30;99.90;;;;;;4868097;29;20048;-46
2024/01/22 10:19:09;;;;;;;37.58;6.70;;;10.30;99.90;;;;;;4873172;29;20399;-46
2024/01/22 10:21:35;;;;;;;37.30;6.68;;;10.20;99.90;;;;;;4843702;29;20057;-49
2024/01/22 10:24:07;;;;;;;37.22;6.88;;;10.20;99.90;;;;;;4875734;29;20523;-49
2024/01/22 10:26:34;;;;;;;34.78;6.07;;;10.20;99.90;;;;;;4867661;29;20043;-46
2024/01/22 10:29:14;;;;;;;40.03;7.22;;;10.20;99.90;;;;;;4874881;29;20056;-47
2024/01/22 10:31:59;;;;;;;37.17;6.45;;;10.20;99.90;;;;;;4876692;29;20045;-49
2024/01/22 10:34:28;;;;;;;36.33;7.10;;;10.20;99.90;;;;;;4872639;29;20068;-47
2024/01/22 10:37:11;;;;;;;36.97;6.50;;;10.20;99.90;;;;;;4875359;29;20084;-46
2024/01/22 10:39:42;;;;;;;37.80;6.70;;;10.20;99.90;;;;;;4872727;29;20052;-47
2024/01/22 10:42:11;;;;;;;36.88;6.80;;;10.20;99.90;;;;;;4876303;29;20041;-46
2024/01/22 10:44:39;;;;;;;34.30;7.07;;;10.10;99.90;;;;;;4876047;29;20383;-48
2024/01/22 10:47:05;;;;;;;35.45;6.30;;;10.10;99.90;;;;;;4873699;29;20127;-46
2024/01/22 10:49:33;;;;;;;34.10;6.57;;;10.00;99.90;;;;;;4872287;29;20626;-47
2024/01/22 10:52:00;;;;;;;44.28;7.40;;;10.00;99.90;;;;;;4874073;29;20041;-45
2024/01/22 10:54:27;;;;;;;41.87;7.70;;;10.00;99.90;;;;;;4873166;29;20217;-45
2024/01/22 10:57:03;;;;;;;38.78;7.05;;;10.10;99.90;;;;;;4874245;29;20309;-48
2024/01/22 10:59:38;;;;;;;43.33;7.85;;;10.10;99.90;;;;;;4873387;29;20120;-45
2024/01/22 11:02:06;;;;;;;43.10;7.75;;;10.10;99.90;;;;;;4874090;29;20080;-45
2024/01/22 11:04:42;;;;;;;37.30;7.30;;;10.10;99.90;;;;;;4873945;29;20398;-45
2024/01/22 11:07:11;;;;;;;44.67;7.72;;;10.10;99.90;;;;;;4878528;29;20289;-49
2024/01/22 11:09:38;;;;;;;35.00;7.40;;;10.10;99.90;;;;;;4878570;29;20049;-46
2024/01/22 11:12:09;;;;;;;39.60;8.47;;;10.20;99.90;;;;;;4888201;29;20037;-46
2024/01/22 11:14:38;;;;;;;41.70;7.97;;;10.30;99.90;;;;;;4886220;29;20716;-46
2024/01/22 11:17:08;;;;;;;34.83;7.18;;;10.30;99.90;;;;;;4881779;29;20518;-46
2024/01/22 11:19:34;;;;;;;39.30;7.15;;;10.30;99.90;;;;;;4884401;29;20038;-48
2024/01/22 11:22:12;;;;;;;38.15;7.57;;;10.30;99.90;;;;;;4869860;29;20492;-48
2024/01/22 11:24:38;;;;;;;33.45;6.68;;;10.30;99.90;;;;;;4877751;29;20133;-46
2024/01/22 11:27:05;;;;;;;36.05;7.25;;;10.40;99.90;;;;;;4874285;29;20134;-46
2024/01/22 11:29:32;;;;;;;37.10;7.63;;;10.40;99.90;;;;;;4874847;29;20045;-46
2024/01/22 11:32:25;;;;;;;36.93;7.47;;;10.40;99.90;;;;;;4875095;29;21261;-45
2024/01/22 11:34:53;;;;;;;35.63;7.45;;;10.40;99.90;;;;;;4875020;29;20057;-46
2024/01/22 11:37:36;;;;;;;36.72;6.65;;;10.40;99.90;;;;;;4874240;29;20041;-46
2024/01/22 11:40:03;;;;;;;28.73;6.50;;;10.20;99.90;;;;;;4872739;29;20046;-45
2024/01/22 11:42:30;;;;;;;33.78;6.57;;;10.20;99.90;;;;;;4874061;29;20041;-46
2024/01/22 11:44:58;;;;;;;34.35;6.85;;;10.20;99.90;;;;;;4875561;29;20148;-47
2024/01/22 11:47:26;;;;;;;28.85;6.35;;;10.20;99.90;;;;;;4872419;29;20052;-47
2024/01/22 11:50:04;;;;;;;32.17;6.70;;;10.20;99.90;;;;;;4875042;29;20393;-47
2024/01/22 11:52:30;;;;;;;31.52;7.43;;;10.30;99.90;;;;;;4860343;29;20111;-48
2024/01/22 11:55:03;;;;;;;29.90;5.78;;;10.50;99.90;;;;;;4874210;29;20088;-46
2024/01/22 11:57:37;;;;;;;29.95;5.60;;;10.40;99.90;;;;;;4874389;29;20036;-45
2024/01/22 12:00:05;;;;;;;31.50;6.00;;;10.50;99.90;;;;;;4875600;29;20435;-46
2024/01/22 12:02:35;;;;;;;32.63;5.68;;;10.50;99.90;;;;;;4882424;29;20481;-47
2024/01/22 12:05:07;;;;;;;27.38;5.68;;;10.40;99.90;;;;;;4876608;29;20396;-46
2024/01/22 12:07:34;;;;;;;33.25;6.18;;;10.40;99.90;;;;;;4874216;29;20048;-46
2024/01/22 12:10:00;;;;;;;31.52;5.68;;;10.30;99.90;;;;;;4875084;29;20488;-46
2024/01/22 12:12:26;;;;;;;25.63;5.32;;;10.20;99.90;;;;;;4879198;29;20044;-47
2024/01/22 12:14:56;;;;;;;31.08;5.70;;;10.20;99.90;;;;;;4866357;29;20110;-47
2024/01/22 12:17:22;;;;;;;28.20;5.20;;;10.30;99.90;;;;;;4875636;29;20052;-46
2024/01/22 12:19:54;;;;;;;28.80;4.90;;;10.30;99.90;;;;;;4882063;29;20128;-48
2024/01/22 12:22:23;;;;;;;27.30;5.50;;;10.30;99.90;;;;;;4879864;29;20041;-47
2024/01/22 12:25:10;;;;;;;25.50;5.65;;;10.30;99.90;;;;;;4879335;29;20108;-48
2024/01/22 12:27:36;;;;;;;26.20;6.10;;;10.40;99.90;;;;;;4879302;29;20507;-47
2024/01/22 12:30:14;;;;;;;26.60;5.47;;;10.30;99.90;;;;;;4878467;29;20705;-48
2024/01/22 12:32:52;;;;;;;25.35;5.28;;;10.30;99.90;;;;;;4877551;29;20044;-47
2024/01/22 12:35:22;;;;;;;25.60;5.07;;;10.30;99.90;;;;;;4876531;29;20430;-50
2024/01/22 12:37:48;;;;;;;27.15;5.35;;;10.30;99.90;;;;;;4877958;29;20048;-48
2024/01/22 12:40:15;;;;;;;21.88;4.43;;;10.30;99.90;;;;;;4879744;29;20045;-47
2024/01/22 12:42:48;;;;;;;24.30;4.80;;;10.20;99.90;;;;;;4874913;29;20061;-45
2024/01/22 12:45:18;;;;;;;29.30;5.78;;;10.00;99.90;;;;;;4879729;29;20492;-46
2024/01/22 12:47:46;;;;;;;23.85;5.55;;;9.90;99.90;;;;;;4876555;29;20052;-46
2024/01/22 12:50:12;;;;;;;25.27;4.65;;;9.80;99.90;;;;;;4877831;29;20393;-47